createdAt,value
2018-12-07T00:00:30.784Z,43.73
2018-12-07T00:02:58.963Z,47.93
2018-12-07T00:05:27.237Z,43.68
2018-12-07T00:07:56.140Z,43.40
2018-12-07T00:10:25.415Z,37.90
2018-12-07T00:12:53.689Z,38.92
2018-12-07T00:15:21.970Z,39.92
2018-12-07T00:17:50.240Z,35.80
2018-12-07T00:20:18.507Z,35.15
2018-12-07T00:22:47.381Z,37.65
2018-12-07T00:25:15.284Z,33.63
2018-12-07T00:27:43.344Z,35.20
2018-12-07T00:30:11.629Z,31.05
2018-12-07T00:32:39.532Z,30.37
2018-12-07T00:35:07.739Z,33.45
2018-12-07T00:37:36.443Z,27.02
2018-12-07T00:40:06.401Z,29.77
2018-12-07T00:42:34.655Z,28.32
2018-12-07T00:45:02.965Z,30.72
2018-12-07T00:47:31.149Z,31.82
2018-12-07T00:49:59.034Z,32.23
2018-12-07T00:52:27.332Z,26.73
2018-12-07T00:55:23.454Z,23.02
2018-12-07T00:57:51.692Z,29.35
2018-12-07T01:00:19.599Z,28.52
2018-12-07T01:02:47.880Z,30.15
2018-12-07T01:05:16.167Z,32.28
2018-12-07T01:07:44.414Z,31.68
2018-12-07T01:10:12.680Z,29.12
2018-12-07T01:12:43.040Z,32.08
2018-12-07T01:15:12.164Z,38.70
2018-12-07T01:17:40.463Z,33.48
2018-12-07T01:20:08.324Z,41.58
2018-12-07T01:22:36.585Z,39.05
2018-12-07T01:25:05.109Z,43.63
2018-12-07T01:27:33.128Z,36.80
2018-12-07T01:30:01.384Z,45.70
2018-12-07T01:32:29.300Z,44.98
2018-12-07T01:34:57.499Z,53.00
2018-12-07T01:37:25.777Z,44.65
2018-12-07T01:39:54.463Z,47.40
2018-12-07T01:42:23.021Z,50.35
2018-12-07T01:44:51.035Z,45.25
2018-12-07T01:47:19.282Z,47.33
2018-12-07T01:49:47.564Z,45.88
2018-12-07T01:52:15.827Z,46.48
2018-12-07T01:54:44.160Z,47.27
2018-12-07T01:57:12.409Z,52.00
2018-12-07T01:59:40.703Z,45.38
2018-12-07T02:02:09.784Z,49.05
2018-12-07T02:04:38.064Z,48.58
2018-12-07T02:07:16.366Z,48.40
2018-12-07T02:09:44.449Z,44.42
2018-12-07T02:12:12.353Z,48.17
2018-12-07T02:14:40.580Z,44.53
2018-12-07T02:17:08.833Z,47.67
2018-12-07T02:19:37.933Z,50.30
2018-12-07T02:22:06.212Z,52.93
2018-12-07T02:24:34.490Z,56.42
2018-12-07T02:27:02.823Z,46.45
2018-12-07T02:29:31.071Z,51.68
2018-12-07T02:31:59.311Z,49.65
2018-12-07T02:34:27.237Z,51.10
2018-12-07T02:36:55.479Z,54.33
2018-12-07T02:39:23.732Z,52.05
2018-12-07T02:41:52.014Z,57.83
2018-12-07T02:44:19.884Z,47.33
2018-12-07T02:46:47.806Z,55.30
2018-12-07T02:49:19.706Z,49.77
2018-12-07T02:51:47.994Z,44.75
2018-12-07T02:54:16.300Z,46.35
2018-12-07T02:56:44.531Z,45.73
2018-12-07T02:59:12.396Z,50.20
2018-12-07T03:01:41.461Z,46.48
2018-12-07T03:04:09.356Z,39.27
2018-12-07T03:06:37.714Z,42.50
2018-12-07T03:09:06.455Z,44.88
2018-12-07T03:11:36.038Z,41.95
2018-12-07T03:14:04.417Z,45.67
2018-12-07T03:16:32.372Z,44.13
2018-12-07T03:19:00.676Z,42.67
2018-12-07T03:21:28.935Z,43.10
2018-12-07T03:23:57.172Z,42.40
2018-12-07T03:26:25.099Z,38.85
2018-12-07T03:28:53.357Z,42.05
2018-12-07T03:31:21.253Z,41.48
2018-12-07T03:33:50.006Z,43.55
2018-12-07T03:36:18.199Z,37.88
2018-12-07T03:38:46.725Z,44.13
2018-12-07T03:41:14.632Z,43.35
2018-12-07T03:43:43.042Z,46.85
2018-12-07T03:46:11.283Z,48.63
2018-12-07T03:48:39.528Z,43.33
2018-12-07T03:51:09.462Z,52.27
2018-12-07T03:53:37.768Z,48.23
2018-12-07T03:56:06.026Z,56.13
2018-12-07T03:58:33.916Z,55.90
2018-12-07T04:01:04.264Z,55.28
2018-12-07T04:03:32.521Z,62.25
2018-12-07T04:06:00.774Z,53.40
2018-12-07T04:08:29.055Z,44.00
2018-12-07T04:10:57.004Z,42.17
2018-12-07T04:13:25.190Z,37.70
2018-12-07T04:15:53.484Z,34.73
2018-12-07T04:18:22.571Z,31.07
2018-12-07T04:20:50.526Z,32.35
2018-12-07T04:23:18.672Z,32.95
2018-12-07T04:25:46.536Z,30.35
2018-12-07T04:28:16.634Z,30.62
2018-12-07T04:30:44.804Z,24.55
2018-12-07T04:33:13.073Z,29.82
2018-12-07T04:35:41.324Z,32.17
2018-12-07T04:38:10.352Z,28.95
2018-12-07T04:40:38.287Z,33.02
2018-12-07T04:43:06.589Z,33.88
2018-12-07T04:45:34.829Z,31.27
2018-12-07T04:48:03.128Z,28.95
2018-12-07T04:50:31.416Z,30.95
2018-12-07T04:53:01.096Z,36.20
2018-12-07T04:55:29.162Z,29.27
2018-12-07T04:57:57.083Z,32.15
2018-12-07T05:00:25.318Z,28.98
2018-12-07T05:02:54.398Z,31.50
2018-12-07T05:05:23.536Z,32.78
2018-12-07T05:07:52.571Z,28.50
2018-12-07T05:10:20.902Z,35.38
2018-12-07T05:12:49.307Z,34.58
2018-12-07T05:15:17.440Z,27.87
2018-12-07T05:17:45.689Z,39.38
2018-12-07T05:20:13.608Z,30.45
2018-12-07T05:22:41.477Z,41.30
2018-12-07T05:25:09.750Z,36.45
2018-12-07T05:27:37.972Z,45.17
2018-12-07T05:30:07.130Z,41.98
2018-12-07T05:32:35.355Z,42.55
2018-12-07T05:35:03.974Z,41.55
2018-12-07T05:37:34.009Z,42.70
2018-12-07T05:40:02.349Z,38.60
2018-12-07T05:42:30.503Z,46.02
2018-12-07T05:44:59.081Z,35.25
2018-12-07T05:47:28.077Z,36.90
2018-12-07T05:49:56.993Z,43.52
2018-12-07T05:52:25.252Z,42.45
2018-12-07T05:54:53.586Z,42.48
2018-12-07T05:57:21.509Z,48.52
2018-12-07T05:59:50.228Z,41.60
2018-12-07T06:02:19.228Z,48.25
2018-12-07T06:04:47.508Z,48.23
2018-12-07T06:07:19.459Z,52.38
2018-12-07T06:09:47.537Z,47.40
2018-12-07T06:12:15.439Z,46.80
2018-12-07T06:14:43.885Z,51.92
2018-12-07T06:17:12.135Z,52.75
2018-12-07T06:19:40.344Z,54.38
2018-12-07T06:22:09.432Z,58.02
2018-12-07T06:24:37.401Z,51.73
2018-12-07T06:27:05.655Z,50.20
2018-12-07T06:29:34.855Z,58.92
2018-12-07T06:33:27.713Z,51.15
2018-12-07T06:35:55.730Z,52.95
2018-12-07T06:38:25.159Z,49.50
2018-12-07T06:40:57.608Z,57.15
2018-12-07T06:43:25.817Z,53.33
2018-12-07T06:45:54.759Z,54.90
2018-12-07T06:48:22.706Z,57.38
2018-12-07T06:50:54.772Z,44.10
2018-12-07T06:53:23.848Z,52.55
2018-12-07T06:55:52.100Z,57.70
2018-12-07T06:58:20.819Z,48.13
2018-12-07T07:00:49.923Z,68.90
2018-12-07T07:03:18.199Z,54.33
2018-12-07T07:05:46.563Z,57.50
2018-12-07T07:08:15.513Z,54.80
2018-12-07T07:10:43.848Z,66.55
2018-12-07T07:13:12.045Z,54.50
2018-12-07T07:15:40.368Z,57.67
2018-12-07T07:18:08.260Z,75.55
2018-12-07T07:20:36.900Z,73.15
2018-12-07T07:23:05.221Z,76.25
2018-12-07T07:25:33.143Z,72.50
2018-12-07T07:28:01.297Z,66.40
2018-12-07T07:30:29.574Z,62.25
2018-12-07T07:32:57.907Z,62.80
2018-12-07T07:35:26.161Z,67.72
2018-12-07T07:37:54.413Z,74.05
2018-12-07T07:40:22.748Z,78.67
2018-12-07T07:42:51.560Z,61.80
2018-12-07T07:45:19.668Z,68.00
2018-12-07T07:47:47.971Z,75.67
2018-12-07T07:50:16.231Z,67.30
2018-12-07T07:52:44.504Z,60.52
2018-12-07T07:55:12.764Z,67.12
2018-12-07T07:57:41.028Z,70.28
2018-12-07T08:00:09.060Z,76.20
2018-12-07T08:02:37.189Z,79.27
2018-12-07T08:05:05.693Z,82.82
2018-12-07T08:07:33.788Z,82.75
2018-12-07T08:10:02.021Z,89.55
2018-12-07T08:12:30.291Z,87.15
2018-12-07T08:14:58.554Z,89.17
2018-12-07T08:17:26.891Z,82.65
2018-12-07T08:19:55.144Z,81.42
2018-12-07T08:22:23.736Z,75.83
2018-12-07T08:24:52.065Z,75.42
2018-12-07T08:27:20.352Z,78.97
2018-12-07T08:29:48.665Z,70.15
2018-12-07T08:32:16.932Z,72.78
2018-12-07T08:34:45.170Z,78.20
2018-12-07T08:37:13.481Z,68.52
2018-12-07T08:39:41.705Z,73.65
2018-12-07T08:42:10.059Z,82.45
2018-12-07T08:44:39.119Z,94.35
2018-12-07T08:47:06.990Z,92.67
2018-12-07T08:49:40.824Z,81.12
2018-12-07T08:52:10.079Z,78.40
2018-12-07T08:54:38.342Z,74.05
2018-12-07T08:57:06.270Z,69.77
2018-12-07T08:59:34.539Z,76.10
2018-12-07T09:02:03.346Z,73.15
2018-12-07T09:04:31.468Z,77.70
2018-12-07T09:06:59.712Z,70.52
2018-12-07T09:09:28.030Z,72.40
2018-12-07T09:11:57.212Z,75.57
2018-12-07T09:14:25.363Z,70.62
2018-12-07T09:16:53.696Z,70.28
2018-12-07T09:19:22.611Z,71.30
2018-12-07T09:21:50.972Z,67.45
2018-12-07T09:24:18.904Z,64.53
2018-12-07T09:26:46.837Z,79.53
2018-12-07T09:29:15.037Z,66.28
2018-12-07T09:31:43.347Z,67.97
2018-12-07T09:34:11.576Z,70.37
2018-12-07T09:36:39.472Z,59.80
2018-12-07T09:39:09.302Z,59.83
2018-12-07T09:41:37.259Z,63.35
2018-12-07T09:44:05.527Z,59.65
2018-12-07T09:46:33.627Z,58.70
2018-12-07T09:49:01.703Z,58.40
2018-12-07T09:51:29.957Z,54.88
2018-12-07T09:53:58.220Z,45.73
2018-12-07T09:56:26.528Z,43.40
2018-12-07T09:58:54.798Z,51.58
2018-12-07T10:01:23.039Z,47.53
2018-12-07T10:03:51.298Z,49.90
2018-12-07T10:06:19.616Z,45.05
2018-12-07T10:08:47.508Z,46.33
2018-12-07T10:11:15.716Z,56.48
2018-12-07T10:13:44.525Z,56.13
2018-12-07T10:16:16.387Z,55.63
2018-12-07T10:18:44.697Z,51.35
2018-12-07T10:21:12.908Z,51.75
2018-12-07T10:23:42.025Z,46.63
2018-12-07T10:26:11.129Z,44.38
2018-12-07T10:28:40.634Z,47.20
2018-12-07T10:31:08.934Z,50.38
2018-12-07T10:33:38.000Z,49.60
2018-12-07T10:36:06.315Z,49.33
2018-12-07T10:38:34.539Z,49.48
2018-12-07T10:41:02.910Z,49.50
2018-12-07T10:43:31.095Z,49.33
2018-12-07T10:45:59.383Z,51.02
2018-12-07T10:48:27.669Z,49.77
2018-12-07T10:50:55.925Z,53.83
2018-12-07T10:53:24.204Z,61.48
2018-12-07T10:55:52.559Z,48.13
2018-12-07T10:58:21.574Z,46.83
2018-12-07T11:00:54.925Z,46.92
2018-12-07T11:03:28.296Z,44.70
2018-12-07T11:06:01.736Z,47.25
2018-12-07T11:08:35.998Z,59.83
2018-12-07T11:12:07.847Z,55.00
2018-12-07T11:14:41.481Z,53.90
2018-12-07T11:17:15.092Z,54.10
2018-12-07T11:19:49.681Z,55.00
2018-12-07T11:22:23.083Z,58.73
2018-12-07T11:24:56.721Z,53.80
2018-12-07T11:27:31.075Z,57.45
2018-12-07T11:30:04.750Z,60.73
2018-12-07T11:32:35.003Z,60.73
2018-12-07T11:35:07.615Z,58.60
2018-12-07T11:37:36.866Z,67.35
2018-12-07T11:40:06.514Z,65.17
2018-12-07T11:42:36.677Z,66.53
2018-12-07T11:45:05.607Z,61.10
2018-12-07T11:47:33.591Z,65.57
2018-12-07T11:50:02.011Z,65.57
2018-12-07T11:52:30.146Z,67.62
2018-12-07T11:54:58.432Z,76.67
2018-12-07T11:57:26.682Z,76.85
2018-12-07T11:59:55.012Z,67.53
2018-12-07T12:02:26.257Z,69.82
2018-12-07T12:04:53.197Z,58.25
2018-12-07T12:07:22.423Z,57.95
2018-12-07T12:09:50.523Z,59.88
2018-12-07T12:12:21.323Z,58.73
2018-12-07T12:14:49.563Z,56.30
2018-12-07T12:17:17.477Z,50.05
2018-12-07T12:19:45.448Z,59.85
2018-12-07T12:22:14.763Z,51.13
2018-12-07T12:24:43.833Z,55.98
2018-12-07T12:27:11.751Z,53.35
2018-12-07T12:29:39.673Z,53.42
2018-12-07T12:32:07.885Z,59.20
2018-12-07T12:34:36.156Z,63.00
2018-12-07T12:37:04.416Z,51.77
2018-12-07T12:39:32.648Z,55.73
2018-12-07T12:42:00.548Z,50.55
2018-12-07T12:44:28.928Z,55.95
2018-12-07T12:46:57.171Z,59.18
2018-12-07T12:49:27.405Z,56.55
2018-12-07T12:51:56.388Z,53.98
2018-12-07T12:54:24.493Z,65.17
2018-12-07T12:56:52.705Z,63.70
2018-12-07T12:59:21.012Z,71.50
2018-12-07T13:01:49.188Z,69.15
2018-12-07T13:04:17.084Z,65.08
2018-12-07T13:06:44.995Z,64.97
2018-12-07T13:09:13.008Z,64.60
2018-12-07T13:11:44.415Z,60.30
2018-12-07T13:14:12.674Z,55.23
2018-12-07T13:16:41.583Z,62.62
2018-12-07T13:19:09.515Z,62.80
2018-12-07T13:21:43.511Z,60.30
2018-12-07T13:24:11.504Z,64.37
2018-12-07T13:26:40.142Z,63.15
2018-12-07T13:29:08.508Z,74.92
2018-12-07T13:31:36.704Z,78.35
2018-12-07T13:34:05.030Z,76.80
2018-12-07T13:36:33.258Z,73.52
2018-12-07T13:39:01.558Z,90.47
2018-12-07T13:41:29.959Z,62.48
2018-12-07T13:43:58.265Z,76.20
2018-12-07T13:46:26.547Z,71.57
2018-12-07T13:48:55.650Z,75.85
2018-12-07T13:51:24.132Z,77.25
2018-12-07T13:53:54.506Z,74.95
2018-12-07T13:56:22.833Z,90.83
2018-12-07T13:58:51.061Z,82.08
2018-12-07T14:01:20.152Z,86.45
2018-12-07T14:03:49.359Z,81.50
2018-12-07T14:06:17.471Z,113.65
2018-12-07T14:08:45.979Z,97.47
2018-12-07T14:11:14.309Z,92.62
2018-12-07T14:13:42.887Z,90.22
2018-12-07T14:16:11.216Z,89.50
2018-12-07T14:18:39.575Z,84.60
2018-12-07T14:21:08.059Z,85.85
2018-12-07T14:23:37.704Z,82.08
2018-12-07T14:26:07.124Z,84.20
2018-12-07T14:28:35.431Z,84.03
2018-12-07T14:31:03.980Z,86.90
2018-12-07T14:33:32.290Z,83.27
2018-12-07T14:36:02.806Z,97.33
2018-12-07T14:38:30.857Z,92.30
2018-12-07T14:40:59.175Z,92.45
2018-12-07T14:43:27.314Z,91.55
2018-12-07T14:45:55.694Z,100.95
2018-12-07T14:48:24.145Z,105.37
2018-12-07T14:50:52.823Z,95.30
2018-12-07T14:53:20.877Z,97.37
2018-12-07T14:55:49.338Z,116.60
2018-12-07T14:58:19.703Z,105.83
2018-12-07T15:00:48.197Z,106.72
2018-12-07T15:03:16.433Z,106.22
2018-12-07T15:05:44.767Z,95.07
2018-12-07T15:08:14.258Z,86.55
2018-12-07T15:10:42.589Z,97.42
2018-12-07T15:13:13.048Z,96.90
2018-12-07T15:15:41.222Z,93.22
2018-12-07T15:18:09.524Z,100.45
2018-12-07T15:20:37.670Z,110.37
2018-12-07T15:23:06.028Z,101.97
2018-12-07T15:25:34.259Z,103.67
2018-12-07T15:28:03.450Z,92.15
2018-12-07T15:30:32.724Z,87.85
2018-12-07T15:33:01.701Z,100.87
2018-12-07T15:35:29.790Z,89.15
2018-12-07T15:37:58.237Z,98.67
2018-12-07T15:40:26.740Z,97.02
2018-12-07T15:42:55.036Z,91.08
2018-12-07T15:45:23.345Z,92.72
2018-12-07T15:47:51.346Z,90.10
2018-12-07T15:50:25.050Z,70.57
2018-12-07T15:52:49.968Z,59.33
2018-12-07T15:55:18.436Z,66.02
2018-12-07T15:57:46.753Z,60.23
2018-12-07T16:00:14.744Z,63.45
2018-12-07T16:02:43.020Z,64.87
2018-12-07T16:05:11.176Z,65.15
2018-12-07T16:07:39.461Z,67.30
2018-12-07T16:10:08.074Z,74.65
2018-12-07T16:12:36.129Z,75.55
2018-12-07T16:15:04.493Z,69.72
2018-12-07T16:17:33.628Z,74.87
2018-12-07T16:20:02.219Z,72.97
2018-12-07T16:22:30.709Z,74.05
2018-12-07T16:24:59.541Z,76.92
2018-12-07T16:27:27.735Z,93.75
2018-12-07T16:29:56.051Z,80.60
2018-12-07T16:32:24.260Z,80.28
2018-12-07T16:34:52.756Z,84.35
2018-12-07T16:37:21.280Z,77.40
2018-12-07T16:39:49.632Z,68.97
2018-12-07T16:42:17.743Z,64.40
2018-12-07T16:44:46.314Z,62.23
2018-12-07T16:47:14.802Z,69.53
2018-12-07T16:49:43.814Z,71.87
2018-12-07T16:52:12.209Z,105.85
2018-12-07T16:54:40.545Z,82.65
2018-12-07T16:57:09.678Z,90.12
2018-12-07T16:59:37.716Z,82.75
2018-12-07T17:02:06.248Z,75.15
2018-12-07T17:04:35.891Z,83.65
2018-12-07T17:07:04.288Z,77.87
2018-12-07T17:09:32.460Z,79.65
2018-12-07T17:12:00.778Z,76.02
2018-12-07T17:14:30.047Z,90.80
2018-12-07T17:16:59.448Z,90.30
2018-12-07T17:19:27.633Z,94.28
2018-12-07T17:21:56.096Z,84.25
2018-12-07T17:24:24.643Z,85.28
2018-12-07T17:26:52.946Z,96.95
2018-12-07T17:29:21.325Z,93.03
2018-12-07T17:31:49.488Z,91.40
2018-12-07T17:34:17.478Z,96.17
2018-12-07T17:36:45.455Z,93.62
2018-12-07T17:39:13.439Z,94.28
2018-12-07T17:41:43.103Z,103.47
2018-12-07T17:44:11.300Z,109.27
2018-12-07T17:46:39.768Z,111.37
2018-12-07T17:49:08.273Z,110.32
2018-12-07T17:51:36.564Z,118.55
2018-12-07T17:54:04.872Z,124.95
2018-12-07T17:56:33.045Z,136.95
2018-12-07T17:59:06.125Z,131.85
2018-12-07T18:01:35.668Z,130.12
2018-12-07T18:04:03.996Z,132.47
2018-12-07T18:06:32.423Z,133.63
2018-12-07T18:09:01.091Z,138.05
2018-12-07T18:11:31.271Z,146.28
2018-12-07T18:13:59.537Z,148.68
2018-12-07T18:16:27.970Z,146.47
2018-12-07T18:18:56.511Z,135.72
2018-12-07T18:21:24.885Z,130.85
2018-12-07T18:23:53.211Z,132.95
2018-12-07T18:26:21.729Z,136.52
2018-12-07T18:28:49.583Z,151.68
2018-12-07T18:31:17.882Z,147.68
2018-12-07T18:33:47.178Z,159.40
2018-12-07T18:36:15.673Z,136.35
2018-12-07T18:38:43.879Z,140.45
2018-12-07T18:41:12.182Z,131.10
2018-12-07T18:43:40.589Z,145.55
2018-12-07T18:46:08.861Z,139.82
2018-12-07T18:48:37.316Z,159.22
2018-12-07T18:51:07.096Z,132.57
2018-12-07T18:53:35.690Z,127.92
2018-12-07T18:56:04.920Z,119.65
2018-12-07T18:58:33.424Z,128.02
2018-12-07T19:01:01.437Z,133.65
2018-12-07T19:03:29.628Z,124.00
2018-12-07T19:05:57.993Z,139.70
2018-12-07T19:08:26.690Z,142.55
2018-12-07T19:10:55.198Z,144.47
2018-12-07T19:13:23.279Z,142.55
2018-12-07T19:15:52.003Z,136.65
2018-12-07T19:18:20.550Z,129.80
2018-12-07T19:20:48.808Z,126.62
2018-12-07T19:23:17.128Z,134.30
2018-12-07T19:25:46.470Z,137.75
2018-12-07T19:28:14.954Z,138.92
2018-12-07T19:30:43.414Z,144.15
2018-12-07T19:33:12.230Z,145.77
2018-12-07T19:35:40.400Z,139.68
2018-12-07T19:38:08.992Z,150.27
2018-12-07T19:40:37.752Z,141.60
2018-12-07T19:43:06.082Z,142.40
2018-12-07T19:45:34.355Z,151.37
2018-12-07T19:48:02.943Z,185.03
2018-12-07T19:50:32.647Z,207.90
2018-12-07T19:53:01.867Z,171.82
2018-12-07T19:55:30.008Z,167.82
2018-12-07T19:57:58.500Z,162.95
2018-12-07T20:00:27.046Z,140.37
2018-12-07T20:02:55.592Z,149.40
2018-12-07T20:05:23.842Z,150.68
2018-12-07T20:07:52.099Z,151.15
2018-12-07T20:10:20.364Z,145.47
2018-12-07T20:12:48.852Z,147.60
2018-12-07T20:15:16.968Z,148.65
2018-12-07T20:17:45.184Z,158.90
2018-12-07T20:20:13.465Z,169.57
2018-12-07T20:22:41.806Z,172.65
2018-12-07T20:25:10.220Z,180.67
2018-12-07T20:27:38.519Z,174.35
2018-12-07T20:30:08.725Z,187.07
2018-12-07T20:32:37.116Z,187.60
2018-12-07T20:35:06.249Z,172.75
2018-12-07T20:37:34.256Z,178.02
2018-12-07T20:40:02.288Z,166.77
2018-12-07T20:42:30.413Z,186.10
2018-12-07T20:44:58.654Z,175.03
2018-12-07T20:47:27.571Z,171.20
2018-12-07T20:49:55.721Z,179.18
2018-12-07T20:52:24.037Z,178.20
2018-12-07T20:54:52.441Z,190.30
2018-12-07T20:57:20.931Z,197.82
2018-12-07T20:59:49.453Z,184.03
2018-12-07T21:02:18.751Z,185.28
2018-12-07T21:04:48.166Z,196.68
2018-12-07T21:08:08.917Z,185.32
2018-12-07T21:11:13.335Z,184.13
2018-12-07T21:13:52.500Z,211.22
2018-12-07T21:17:29.647Z,259.57
2018-12-07T21:20:15.765Z,287.38
2018-12-07T21:22:44.030Z,318.97
2018-12-07T21:25:12.613Z,319.02
2018-12-07T21:27:40.736Z,311.45
2018-12-07T21:31:14.198Z,299.55
2018-12-07T21:34:57.736Z,277.25
2018-12-07T21:37:26.017Z,252.55
2018-12-07T21:40:30.858Z,237.60
2018-12-07T21:43:00.071Z,246.00
2018-12-07T21:45:28.402Z,250.22
2018-12-07T21:48:32.453Z,212.68
2018-12-07T21:51:12.307Z,227.68
2018-12-07T21:53:41.769Z,213.85
2018-12-07T21:56:10.360Z,234.25
2018-12-07T21:58:38.904Z,235.75
2018-12-07T22:01:07.396Z,246.13
2018-12-07T22:03:36.102Z,247.30
2018-12-07T22:06:04.662Z,252.57
2018-12-07T22:08:33.382Z,244.15
2018-12-07T22:11:18.779Z,275.30
2018-12-07T22:13:47.473Z,317.20
2018-12-07T22:16:15.728Z,310.93
2018-12-07T22:18:45.652Z,313.62
2018-12-07T22:21:15.251Z,316.65
2018-12-07T22:23:44.048Z,304.82
2018-12-07T22:26:12.445Z,336.30
2018-12-07T22:28:40.798Z,304.13
2018-12-07T22:31:09.109Z,267.62
2018-12-07T22:33:37.822Z,246.65
2018-12-07T22:36:06.057Z,249.00
2018-12-07T22:38:34.351Z,236.87
2018-12-07T22:41:03.058Z,253.85
2018-12-07T22:43:31.299Z,243.63
2018-12-07T22:45:59.881Z,210.17
2018-12-07T22:48:28.405Z,216.20
2018-12-07T22:50:56.860Z,244.77
2018-12-07T22:53:25.103Z,240.32
2018-12-07T22:55:53.368Z,247.10
2018-12-07T22:58:21.508Z,289.48
2018-12-07T23:00:50.702Z,269.35
2018-12-07T23:03:23.349Z,277.07
2018-12-07T23:05:51.844Z,296.57
2018-12-07T23:08:20.121Z,309.20
2018-12-07T23:10:50.473Z,308.87
2018-12-07T23:13:18.728Z,350.87
2018-12-07T23:15:46.997Z,353.55
2018-12-07T23:18:15.229Z,339.08
2018-12-07T23:20:43.527Z,332.45
2018-12-07T23:23:11.851Z,334.67
2018-12-07T23:25:40.094Z,333.15
2018-12-07T23:28:08.364Z,331.43
2018-12-07T23:30:36.848Z,337.35
2018-12-07T23:33:04.942Z,328.77
2018-12-07T23:35:33.097Z,330.10
2018-12-07T23:38:01.495Z,321.10
2018-12-07T23:40:31.603Z,315.90
2018-12-07T23:43:04.331Z,323.62
2018-12-07T23:45:33.221Z,335.00
2018-12-07T23:48:02.378Z,314.02
2018-12-07T23:50:31.864Z,323.75
2018-12-07T23:53:00.173Z,327.52
2018-12-07T23:55:28.429Z,339.10
2018-12-07T23:57:56.724Z,307.70
